sensor_id;sensor_type;location;lat;lon;timestamp;temperature;humidity
56234;DHT22;42141;53.240;6.580;2023-05-29T00:00:07;9.20;99.90
56234;DHT22;42141;53.240;6.580;2023-05-29T00:02:36;9.20;99.90
56234;DHT22;42141;53.240;6.580;2023-05-29T00:05:01;9.30;99.90
56234;DHT22;42141;53.240;6.580;2023-05-29T00:07:32;9.20;99.90
56234;DHT22;42141;53.240;6.580;2023-05-29T00:10:00;9.40;99.90
56234;DHT22;42141;53.240;6.580;2023-05-29T00:12:26;9.20;99.90
56234;DHT22;42141;53.240;6.580;2023-05-29T00:14:52;9.20;99.90
56234;DHT22;42141;53.240;6.580;2023-05-29T00:17:18;9.40;99.90
56234;DHT22;42141;53.240;6.580;2023-05-29T00:19:43;9.10;99.90
56234;DHT22;42141;53.240;6.580;2023-05-29T00:22:09;9.10;99.90
56234;DHT22;42141;53.240;6.580;2023-05-29T00:24:35;9.10;99.90
56234;DHT22;42141;53.240;6.580;2023-05-29T00:27:01;9.70;99.90
56234;DHT22;42141;53.240;6.580;2023-05-29T00:29:27;9.10;99.90
56234;DHT22;42141;53.240;6.580;2023-05-29T00:31:53;9.10;99.90
56234;DHT22;42141;53.240;6.580;2023-05-29T00:34:22;9.00;99.90
56234;DHT22;42141;53.240;6.580;2023-05-29T00:36:51;9.80;99.90
56234;DHT22;42141;53.240;6.580;2023-05-29T00:39:17;9.00;99.90
56234;DHT22;42141;53.240;6.580;2023-05-29T00:41:43;9.00;99.90
56234;DHT22;42141;53.240;6.580;2023-05-29T00:44:09;9.00;99.90
56234;DHT22;42141;53.240;6.580;2023-05-29T00:46:36;9.00;99.90
56234;DHT22;42141;53.240;6.580;2023-05-29T00:49:01;9.00;99.90
56234;DHT22;42141;53.240;6.580;2023-05-29T00:51:29;9.00;99.90
56234;DHT22;42141;53.240;6.580;2023-05-29T00:53:57;8.90;99.90
56234;DHT22;42141;53.240;6.580;2023-05-29T00:56:24;9.40;99.90
56234;DHT22;42141;53.240;6.580;2023-05-29T00:58:51;10.10;99.90
56234;DHT22;42141;53.240;6.580;2023-05-29T01:01:20;9.40;99.90
56234;DHT22;42141;53.240;6.580;2023-05-29T01:03:47;8.90;99.90
56234;DHT22;42141;53.240;6.580;2023-05-29T01:06:14;9.40;99.90
56234;DHT22;42141;53.240;6.580;2023-05-29T01:08:40;9.10;99.90
56234;DHT22;42141;53.240;6.580;2023-05-29T01:11:29;8.90;99.90
56234;DHT22;42141;53.240;6.580;2023-05-29T01:14:00;8.90;99.90
56234;DHT22;42141;53.240;6.580;2023-05-29T01:16:45;8.90;99.90
56234;DHT22;42141;53.240;6.580;2023-05-29T01:25:24;9.00;99.90
56234;DHT22;42141;53.240;6.580;2023-05-29T01:27:55;9.70;99.90
56234;DHT22;42141;53.240;6.580;2023-05-29T01:30:24;9.10;99.90
56234;DHT22;42141;53.240;6.580;2023-05-29T01:32:51;9.80;99.90
56234;DHT22;42141;53.240;6.580;2023-05-29T01:35:17;9.60;99.90
56234;DHT22;42141;53.240;6.580;2023-05-29T01:37:42;9.10;99.90
56234;DHT22;42141;53.240;6.580;2023-05-29T01:40:09;9.10;99.90
56234;DHT22;42141;53.240;6.580;2023-05-29T01:42:39;9.10;99.90
56234;DHT22;42141;53.240;6.580;2023-05-29T01:45:05;9.10;99.90
56234;DHT22;42141;53.240;6.580;2023-05-29T01:47:32;9.00;99.90
56234;DHT22;42141;53.240;6.580;2023-05-29T01:49:59;9.10;99.90
56234;DHT22;42141;53.240;6.580;2023-05-29T01:52:25;9.00;99.90
56234;DHT22;42141;53.240;6.580;2023-05-29T01:54:51;9.00;99.90
56234;DHT22;42141;53.240;6.580;2023-05-29T01:57:17;10.00;99.90
56234;DHT22;42141;53.240;6.580;2023-05-29T01:59:43;9.00;99.90
56234;DHT22;42141;53.240;6.580;2023-05-29T02:02:10;9.00;99.90
56234;DHT22;42141;53.240;6.580;2023-05-29T02:04:37;9.00;99.90
56234;DHT22;42141;53.240;6.580;2023-05-29T02:07:04;9.00;99.90
56234;DHT22;42141;53.240;6.580;2023-05-29T02:09:30;8.90;99.90
56234;DHT22;42141;53.240;6.580;2023-05-29T02:11:56;9.00;99.90
56234;DHT22;42141;53.240;6.580;2023-05-29T02:14:22;8.90;99.90
56234;DHT22;42141;53.240;6.580;2023-05-29T02:16:50;8.90;99.90
56234;DHT22;42141;53.240;6.580;2023-05-29T02:19:18;9.70;99.90
56234;DHT22;42141;53.240;6.580;2023-05-29T02:21:44;10.20;99.90
56234;DHT22;42141;53.240;6.580;2023-05-29T02:24:09;9.60;99.90
56234;DHT22;42141;53.240;6.580;2023-05-29T02:26:35;10.00;99.90
56234;DHT22;42141;53.240;6.580;2023-05-29T02:29:04;10.40;99.90
56234;DHT22;42141;53.240;6.580;2023-05-29T02:31:32;9.00;99.90
56234;DHT22;42141;53.240;6.580;2023-05-29T02:33:58;9.00;99.90
56234;DHT22;42141;53.240;6.580;2023-05-29T02:36:24;9.40;99.90
56234;DHT22;42141;53.240;6.580;2023-05-29T02:38:50;9.00;99.90
56234;DHT22;42141;53.240;6.580;2023-05-29T02:41:15;10.10;99.90
56234;DHT22;42141;53.240;6.580;2023-05-29T02:43:41;9.00;99.90
56234;DHT22;42141;53.240;6.580;2023-05-29T02:46:07;10.40;99.90
56234;DHT22;42141;53.240;6.580;2023-05-29T02:48:32;9.00;99.90
56234;DHT22;42141;53.240;6.580;2023-05-29T02:50:58;9.00;99.90
56234;DHT22;42141;53.240;6.580;2023-05-29T02:53:24;9.70;99.90
56234;DHT22;42141;53.240;6.580;2023-05-29T02:55:50;9.10;99.90
56234;DHT22;42141;53.240;6.580;2023-05-29T02:58:16;10.40;99.90
56234;DHT22;42141;53.240;6.580;2023-05-29T03:00:42;9.80;99.90
56234;DHT22;42141;53.240;6.580;2023-05-29T03:03:08;9.00;99.90
56234;DHT22;42141;53.240;6.580;2023-05-29T03:05:34;9.30;99.90
56234;DHT22;42141;53.240;6.580;2023-05-29T03:08:00;9.30;99.90
56234;DHT22;42141;53.240;6.580;2023-05-29T03:10:26;9.30;99.90
56234;DHT22;42141;53.240;6.580;2023-05-29T03:12:51;9.30;99.90
56234;DHT22;42141;53.240;6.580;2023-05-29T03:15:17;9.60;99.90
56234;DHT22;42141;53.240;6.580;2023-05-29T03:17:48;9.30;99.90
56234;DHT22;42141;53.240;6.580;2023-05-29T03:20:14;9.30;99.90
56234;DHT22;42141;53.240;6.580;2023-05-29T03:22:41;9.40;99.90
56234;DHT22;42141;53.240;6.580;2023-05-29T03:25:07;9.40;99.90
56234;DHT22;42141;53.240;6.580;2023-05-29T03:27:34;9.40;99.90
56234;DHT22;42141;53.240;6.580;2023-05-29T03:30:00;10.70;99.90
56234;DHT22;42141;53.240;6.580;2023-05-29T03:32:25;9.50;99.90
56234;DHT22;42141;53.240;6.580;2023-05-29T03:34:51;9.60;99.90
56234;DHT22;42141;53.240;6.580;2023-05-29T03:37:17;10.10;99.90
56234;DHT22;42141;53.240;6.580;2023-05-29T03:39:43;10.50;99.90
56234;DHT22;42141;53.240;6.580;2023-05-29T03:42:08;9.70;99.90
56234;DHT22;42141;53.240;6.580;2023-05-29T03:44:34;9.70;99.90
56234;DHT22;42141;53.240;6.580;2023-05-29T03:47:00;10.50;99.90
56234;DHT22;42141;53.240;6.580;2023-05-29T03:49:25;10.60;99.90
56234;DHT22;42141;53.240;6.580;2023-05-29T03:51:51;10.40;99.90
56234;DHT22;42141;53.240;6.580;2023-05-29T03:54:17;9.80;99.90
56234;DHT22;42141;53.240;6.580;2023-05-29T03:56:42;7.80;99.90
56234;DHT22;42141;53.240;6.580;2023-05-29T03:59:08;10.00;99.90
56234;DHT22;42141;53.240;6.580;2023-05-29T04:01:34;9.90;99.90
56234;DHT22;42141;53.240;6.580;2023-05-29T04:04:00;9.90;99.90
56234;DHT22;42141;53.240;6.580;2023-05-29T04:06:26;10.00;99.90
56234;DHT22;42141;53.240;6.580;2023-05-29T04:08:52;10.00;99.90
56234;DHT22;42141;53.240;6.580;2023-05-29T04:11:17;10.00;99.90
56234;DHT22;42141;53.240;6.580;2023-05-29T04:13:46;10.60;99.90
56234;DHT22;42141;53.240;6.580;2023-05-29T04:16:13;10.10;99.90
56234;DHT22;42141;53.240;6.580;2023-05-29T04:18:39;10.10;99.90
56234;DHT22;42141;53.240;6.580;2023-05-29T04:21:05;10.20;99.90
56234;DHT22;42141;53.240;6.580;2023-05-29T04:23:31;10.20;99.90
56234;DHT22;42141;53.240;6.580;2023-05-29T04:25:56;10.20;99.90
56234;DHT22;42141;53.240;6.580;2023-05-29T04:28:22;11.30;99.90
56234;DHT22;42141;53.240;6.580;2023-05-29T04:30:49;10.20;99.90
56234;DHT22;42141;53.240;6.580;2023-05-29T04:33:16;10.20;99.90
56234;DHT22;42141;53.240;6.580;2023-05-29T04:35:42;10.20;99.90
56234;DHT22;42141;53.240;6.580;2023-05-29T04:38:09;11.50;99.90
56234;DHT22;42141;53.240;6.580;2023-05-29T04:40:35;10.20;99.90
56234;DHT22;42141;53.240;6.580;2023-05-29T04:43:02;10.20;99.90
56234;DHT22;42141;53.240;6.580;2023-05-29T04:45:30;10.10;99.90
56234;DHT22;42141;53.240;6.580;2023-05-29T04:47:56;10.20;99.90
56234;DHT22;42141;53.240;6.580;2023-05-29T04:50:22;10.30;99.90
56234;DHT22;42141;53.240;6.580;2023-05-29T04:52:48;10.30;99.90
56234;DHT22;42141;53.240;6.580;2023-05-29T04:55:14;10.40;99.90
56234;DHT22;42141;53.240;6.580;2023-05-29T04:57:40;10.40;99.90
56234;DHT22;42141;53.240;6.580;2023-05-29T05:00:07;10.40;99.90
56234;DHT22;42141;53.240;6.580;2023-05-29T05:02:42;10.50;99.90
56234;DHT22;42141;53.240;6.580;2023-05-29T05:05:11;10.50;99.90
56234;DHT22;42141;53.240;6.580;2023-05-29T05:07:37;10.50;99.90
56234;DHT22;42141;53.240;6.580;2023-05-29T05:10:04;10.60;99.90
56234;DHT22;42141;53.240;6.580;2023-05-29T05:12:29;10.60;99.90
56234;DHT22;42141;53.240;6.580;2023-05-29T05:14:55;11.20;99.90
56234;DHT22;42141;53.240;6.580;2023-05-29T05:17:21;10.70;99.90
56234;DHT22;42141;53.240;6.580;2023-05-29T05:19:47;10.90;99.90
56234;DHT22;42141;53.240;6.580;2023-05-29T05:22:15;11.00;99.90
56234;DHT22;42141;53.240;6.580;2023-05-29T05:24:40;11.10;99.90
56234;DHT22;42141;53.240;6.580;2023-05-29T05:27:06;11.30;99.90
56234;DHT22;42141;53.240;6.580;2023-05-29T05:29:32;11.40;99.90
56234;DHT22;42141;53.240;6.580;2023-05-29T05:31:58;11.60;99.90
56234;DHT22;42141;53.240;6.580;2023-05-29T05:34:23;13.20;99.90
56234;DHT22;42141;53.240;6.580;2023-05-29T05:36:49;11.80;99.90
56234;DHT22;42141;53.240;6.580;2023-05-29T05:39:15;11.90;99.90
56234;DHT22;42141;53.240;6.580;2023-05-29T05:41:41;12.00;99.90
56234;DHT22;42141;53.240;6.580;2023-05-29T05:44:06;12.10;99.90
56234;DHT22;42141;53.240;6.580;2023-05-29T05:46:32;12.20;99.90
56234;DHT22;42141;53.240;6.580;2023-05-29T05:48:58;12.20;99.90
56234;DHT22;42141;53.240;6.580;2023-05-29T05:51:24;12.40;99.90
56234;DHT22;42141;53.240;6.580;2023-05-29T05:53:50;12.40;99.90
56234;DHT22;42141;53.240;6.580;2023-05-29T05:56:16;12.40;99.90
56234;DHT22;42141;53.240;6.580;2023-05-29T05:58:41;12.40;99.90
56234;DHT22;42141;53.240;6.580;2023-05-29T06:01:07;12.50;99.90
56234;DHT22;42141;53.240;6.580;2023-05-29T06:03:37;12.50;99.90
56234;DHT22;42141;53.240;6.580;2023-05-29T06:06:03;12.50;99.90
56234;DHT22;42141;53.240;6.580;2023-05-29T06:08:29;12.10;99.90
56234;DHT22;42141;53.240;6.580;2023-05-29T06:10:56;12.50;99.90
56234;DHT22;42141;53.240;6.580;2023-05-29T06:13:21;12.60;99.90
56234;DHT22;42141;53.240;6.580;2023-05-29T06:15:47;12.70;99.90
56234;DHT22;42141;53.240;6.580;2023-05-29T06:18:13;12.80;99.90
56234;DHT22;42141;53.240;6.580;2023-05-29T06:20:39;12.80;99.90
56234;DHT22;42141;53.240;6.580;2023-05-29T06:23:04;12.90;99.90
56234;DHT22;42141;53.240;6.580;2023-05-29T06:25:31;12.90;99.90
56234;DHT22;42141;53.240;6.580;2023-05-29T06:28:00;12.80;99.90
56234;DHT22;42141;53.240;6.580;2023-05-29T06:30:26;12.70;99.90
56234;DHT22;42141;53.240;6.580;2023-05-29T06:32:57;12.70;99.90
56234;DHT22;42141;53.240;6.580;2023-05-29T06:35:23;12.70;99.90
56234;DHT22;42141;53.240;6.580;2023-05-29T06:37:48;12.80;99.90
56234;DHT22;42141;53.240;6.580;2023-05-29T06:40:14;12.80;99.90
56234;DHT22;42141;53.240;6.580;2023-05-29T06:42:43;12.80;99.90
56234;DHT22;42141;53.240;6.580;2023-05-29T06:45:12;12.90;99.90
56234;DHT22;42141;53.240;6.580;2023-05-29T06:47:39;13.00;99.90
56234;DHT22;42141;53.240;6.580;2023-05-29T06:50:06;13.00;99.90
56234;DHT22;42141;53.240;6.580;2023-05-29T06:52:32;13.00;99.90
56234;DHT22;42141;53.240;6.580;2023-05-29T06:54:58;12.90;99.90
56234;DHT22;42141;53.240;6.580;2023-05-29T06:57:23;12.90;99.90
56234;DHT22;42141;53.240;6.580;2023-05-29T06:59:49;13.00;99.90
56234;DHT22;42141;53.240;6.580;2023-05-29T07:02:15;13.00;99.90
56234;DHT22;42141;53.240;6.580;2023-05-29T07:04:41;12.90;99.90
56234;DHT22;42141;53.240;6.580;2023-05-29T07:07:06;12.90;99.90
56234;DHT22;42141;53.240;6.580;2023-05-29T07:09:32;12.90;99.90
56234;DHT22;42141;53.240;6.580;2023-05-29T07:11:58;12.90;99.90
56234;DHT22;42141;53.240;6.580;2023-05-29T07:14:24;12.80;99.90
56234;DHT22;42141;53.240;6.580;2023-05-29T07:16:49;12.90;99.90
56234;DHT22;42141;53.240;6.580;2023-05-29T07:19:15;12.90;99.90
56234;DHT22;42141;53.240;6.580;2023-05-29T07:21:42;13.00;99.90
56234;DHT22;42141;53.240;6.580;2023-05-29T07:24:07;13.20;99.90
56234;DHT22;42141;53.240;6.580;2023-05-29T07:26:33;13.30;99.90
56234;DHT22;42141;53.240;6.580;2023-05-29T07:28:59;13.40;99.90
56234;DHT22;42141;53.240;6.580;2023-05-29T07:31:25;13.50;99.90
56234;DHT22;42141;53.240;6.580;2023-05-29T07:33:50;13.50;99.90
56234;DHT22;42141;53.240;6.580;2023-05-29T07:36:16;13.50;99.90
56234;DHT22;42141;53.240;6.580;2023-05-29T07:38:43;13.60;99.90
56234;DHT22;42141;53.240;6.580;2023-05-29T07:41:09;13.70;99.90
56234;DHT22;42141;53.240;6.580;2023-05-29T07:43:35;13.70;99.90
56234;DHT22;42141;53.240;6.580;2023-05-29T07:46:01;13.90;99.90
56234;DHT22;42141;53.240;6.580;2023-05-29T07:48:26;14.10;99.90
56234;DHT22;42141;53.240;6.580;2023-05-29T07:50:52;14.30;99.90
56234;DHT22;42141;53.240;6.580;2023-05-29T07:53:18;14.50;99.90
56234;DHT22;42141;53.240;6.580;2023-05-29T07:55:44;14.50;99.90
56234;DHT22;42141;53.240;6.580;2023-05-29T07:58:09;14.50;99.90
56234;DHT22;42141;53.240;6.580;2023-05-29T08:00:37;14.40;99.90
56234;DHT22;42141;53.240;6.580;2023-05-29T08:03:04;14.40;99.90
56234;DHT22;42141;53.240;6.580;2023-05-29T08:05:30;14.30;99.90
56234;DHT22;42141;53.240;6.580;2023-05-29T08:07:59;14.40;99.90
56234;DHT22;42141;53.240;6.580;2023-05-29T08:10:24;14.30;99.90
56234;DHT22;42141;53.240;6.580;2023-05-29T08:12:50;14.30;99.90
56234;DHT22;42141;53.240;6.580;2023-05-29T08:15:19;14.30;99.90
56234;DHT22;42141;53.240;6.580;2023-05-29T08:17:52;14.30;99.90
56234;DHT22;42141;53.240;6.580;2023-05-29T08:20:17;14.30;99.90
56234;DHT22;42141;53.240;6.580;2023-05-29T08:22:44;14.20;99.90
56234;DHT22;42141;53.240;6.580;2023-05-29T08:25:10;14.10;99.90
56234;DHT22;42141;53.240;6.580;2023-05-29T08:27:36;14.20;99.90
56234;DHT22;42141;53.240;6.580;2023-05-29T08:30:02;14.20;99.90
56234;DHT22;42141;53.240;6.580;2023-05-29T08:32:28;14.20;99.90
56234;DHT22;42141;53.240;6.580;2023-05-29T08:34:53;14.20;99.90
56234;DHT22;42141;53.240;6.580;2023-05-29T08:37:19;14.30;99.90
56234;DHT22;42141;53.240;6.580;2023-05-29T08:39:45;14.60;99.90
56234;DHT22;42141;53.240;6.580;2023-05-29T08:42:13;14.20;99.90
56234;DHT22;42141;53.240;6.580;2023-05-29T08:44:47;14.20;99.90
56234;DHT22;42141;53.240;6.580;2023-05-29T08:47:15;14.20;99.90
56234;DHT22;42141;53.240;6.580;2023-05-29T08:49:50;14.30;99.90
56234;DHT22;42141;53.240;6.580;2023-05-29T08:52:19;14.40;99.90
56234;DHT22;42141;53.240;6.580;2023-05-29T08:54:45;14.50;99.90
56234;DHT22;42141;53.240;6.580;2023-05-29T08:57:12;14.50;99.90
56234;DHT22;42141;53.240;6.580;2023-05-29T08:59:41;14.40;99.90
56234;DHT22;42141;53.240;6.580;2023-05-29T09:02:07;14.40;99.90
56234;DHT22;42141;53.240;6.580;2023-05-29T09:04:33;14.50;99.90
56234;DHT22;42141;53.240;6.580;2023-05-29T09:06:59;14.50;99.90
56234;DHT22;42141;53.240;6.580;2023-05-29T09:09:26;14.60;99.90
56234;DHT22;42141;53.240;6.580;2023-05-29T09:11:55;14.60;99.90
56234;DHT22;42141;53.240;6.580;2023-05-29T09:14:37;14.70;99.90
56234;DHT22;42141;53.240;6.580;2023-05-29T09:17:04;14.80;99.90
56234;DHT22;42141;53.240;6.580;2023-05-29T09:19:35;14.90;99.90
56234;DHT22;42141;53.240;6.580;2023-05-29T09:22:06;15.00;99.90
56234;DHT22;42141;53.240;6.580;2023-05-29T09:24:33;15.10;99.90
56234;DHT22;42141;53.240;6.580;2023-05-29T09:27:00;15.20;99.90
56234;DHT22;42141;53.240;6.580;2023-05-29T09:29:30;15.30;99.90
56234;DHT22;42141;53.240;6.580;2023-05-29T09:31:56;15.40;99.90
56234;DHT22;42141;53.240;6.580;2023-05-29T09:34:24;15.40;99.90
56234;DHT22;42141;53.240;6.580;2023-05-29T09:36:52;15.40;99.90
56234;DHT22;42141;53.240;6.580;2023-05-29T09:39:18;15.50;99.90
56234;DHT22;42141;53.240;6.580;2023-05-29T09:41:47;15.60;99.90
56234;DHT22;42141;53.240;6.580;2023-05-29T09:44:14;15.70;99.90
56234;DHT22;42141;53.240;6.580;2023-05-29T09:46:41;15.80;99.90
56234;DHT22;42141;53.240;6.580;2023-05-29T09:49:13;15.80;99.90
56234;DHT22;42141;53.240;6.580;2023-05-29T09:51:39;16.00;99.90
56234;DHT22;42141;53.240;6.580;2023-05-29T09:54:15;15.90;99.90
56234;DHT22;42141;53.240;6.580;2023-05-29T09:56:42;15.80;99.90
56234;DHT22;42141;53.240;6.580;2023-05-29T09:59:13;15.80;99.90
56234;DHT22;42141;53.240;6.580;2023-05-29T10:01:43;15.90;99.90
56234;DHT22;42141;53.240;6.580;2023-05-29T10:04:11;16.20;99.90
56234;DHT22;42141;53.240;6.580;2023-05-29T10:06:45;16.30;99.90
56234;DHT22;42141;53.240;6.580;2023-05-29T10:09:13;16.40;99.90
56234;DHT22;42141;53.240;6.580;2023-05-29T10:11:43;15.20;99.90
56234;DHT22;42141;53.240;6.580;2023-05-29T10:14:10;16.30;99.90
56234;DHT22;42141;53.240;6.580;2023-05-29T10:16:43;16.20;99.90
56234;DHT22;42141;53.240;6.580;2023-05-29T10:19:29;16.30;99.90
56234;DHT22;42141;53.240;6.580;2023-05-29T10:21:55;16.20;99.90
56234;DHT22;42141;53.240;6.580;2023-05-29T10:24:22;16.20;99.90
56234;DHT22;42141;53.240;6.580;2023-05-29T10:26:50;16.10;99.90
56234;DHT22;42141;53.240;6.580;2023-05-29T10:32:22;15.90;99.90
56234;DHT22;42141;53.240;6.580;2023-05-29T10:35:06;15.90;99.90
56234;DHT22;42141;53.240;6.580;2023-05-29T10:37:57;15.90;99.90
56234;DHT22;42141;53.240;6.580;2023-05-29T10:40:26;16.10;99.90
56234;DHT22;42141;53.240;6.580;2023-05-29T10:42:53;16.20;99.90
56234;DHT22;42141;53.240;6.580;2023-05-29T10:50:55;16.40;99.90
56234;DHT22;42141;53.240;6.580;2023-05-29T10:53:26;16.40;99.90
56234;DHT22;42141;53.240;6.580;2023-05-29T10:55:56;16.50;99.90
56234;DHT22;42141;53.240;6.580;2023-05-29T10:58:24;16.60;99.90
56234;DHT22;42141;53.240;6.580;2023-05-29T11:00:54;16.50;99.90
56234;DHT22;42141;53.240;6.580;2023-05-29T11:03:30;16.40;99.90
56234;DHT22;42141;53.240;6.580;2023-05-29T11:06:16;16.20;99.90
56234;DHT22;42141;53.240;6.580;2023-05-29T11:08:47;16.10;99.90
56234;DHT22;42141;53.240;6.580;2023-05-29T11:11:15;16.00;99.90
56234;DHT22;42141;53.240;6.580;2023-05-29T11:13:41;16.00;99.90
56234;DHT22;42141;53.240;6.580;2023-05-29T11:16:14;16.10;99.90
56234;DHT22;42141;53.240;6.580;2023-05-29T11:18:48;16.10;99.90
56234;DHT22;42141;53.240;6.580;2023-05-29T11:21:28;16.20;99.90
56234;DHT22;42141;53.240;6.580;2023-05-29T11:24:01;16.20;99.90
56234;DHT22;42141;53.240;6.580;2023-05-29T11:26:34;16.20;99.90
56234;DHT22;42141;53.240;6.580;2023-05-29T11:29:05;16.20;99.90
56234;DHT22;42141;53.240;6.580;2023-05-29T11:31:33;16.40;99.90
56234;DHT22;42141;53.240;6.580;2023-05-29T11:34:01;16.50;99.90
56234;DHT22;42141;53.240;6.580;2023-05-29T11:36:31;16.60;99.90
56234;DHT22;42141;53.240;6.580;2023-05-29T11:38:58;16.40;99.90
56234;DHT22;42141;53.240;6.580;2023-05-29T11:41:25;16.50;99.90
56234;DHT22;42141;53.240;6.580;2023-05-29T11:44:02;16.60;99.90
56234;DHT22;42141;53.240;6.580;2023-05-29T11:46:28;16.60;99.90
56234;DHT22;42141;53.240;6.580;2023-05-29T11:48:58;16.60;99.90
56234;DHT22;42141;53.240;6.580;2023-05-29T11:51:24;16.90;99.90
56234;DHT22;42141;53.240;6.580;2023-05-29T11:53:51;16.90;99.90
56234;DHT22;42141;53.240;6.580;2023-05-29T11:56:23;17.00;99.90
56234;DHT22;42141;53.240;6.580;2023-05-29T11:58:50;17.20;99.90
56234;DHT22;42141;53.240;6.580;2023-05-29T12:01:17;16.90;99.90
56234;DHT22;42141;53.240;6.580;2023-05-29T12:03:44;16.90;99.90
56234;DHT22;42141;53.240;6.580;2023-05-29T12:06:10;16.80;99.90
56234;DHT22;42141;53.240;6.580;2023-05-29T12:08:39;16.80;99.90
56234;DHT22;42141;53.240;6.580;2023-05-29T12:11:06;16.80;99.90
56234;DHT22;42141;53.240;6.580;2023-05-29T12:13:31;16.80;99.90
56234;DHT22;42141;53.240;6.580;2023-05-29T12:15:58;16.80;99.90
56234;DHT22;42141;53.240;6.580;2023-05-29T12:18:25;16.90;99.90
56234;DHT22;42141;53.240;6.580;2023-05-29T12:21:00;17.00;99.90
56234;DHT22;42141;53.240;6.580;2023-05-29T12:23:28;17.20;99.90
56234;DHT22;42141;53.240;6.580;2023-05-29T12:25:54;17.30;99.90
56234;DHT22;42141;53.240;6.580;2023-05-29T12:28:21;17.30;99.90
56234;DHT22;42141;53.240;6.580;2023-05-29T12:30:47;17.20;99.90
56234;DHT22;42141;53.240;6.580;2023-05-29T12:33:29;17.00;99.90
56234;DHT22;42141;53.240;6.580;2023-05-29T12:36:01;17.00;99.90
56234;DHT22;42141;53.240;6.580;2023-05-29T12:38:27;17.00;99.90
56234;DHT22;42141;53.240;6.580;2023-05-29T12:40:53;17.20;99.90
56234;DHT22;42141;53.240;6.580;2023-05-29T12:43:20;17.40;99.90
56234;DHT22;42141;53.240;6.580;2023-05-29T12:45:45;17.60;99.90
56234;DHT22;42141;53.240;6.580;2023-05-29T12:48:11;16.40;99.90
56234;DHT22;42141;53.240;6.580;2023-05-29T12:50:40;17.70;99.90
56234;DHT22;42141;53.240;6.580;2023-05-29T12:53:11;17.70;99.90
56234;DHT22;42141;53.240;6.580;2023-05-29T12:55:39;17.80;99.80
56234;DHT22;42141;53.240;6.580;2023-05-29T12:58:06;17.80;99.90
56234;DHT22;42141;53.240;6.580;2023-05-29T13:00:33;17.90;99.80
56234;DHT22;42141;53.240;6.580;2023-05-29T13:02:59;17.80;99.80
56234;DHT22;42141;53.240;6.580;2023-05-29T13:05:26;17.80;99.90
56234;DHT22;42141;53.240;6.580;2023-05-29T13:07:52;17.90;99.90
56234;DHT22;42141;53.240;6.580;2023-05-29T13:10:19;17.80;99.50
56234;DHT22;42141;53.240;6.580;2023-05-29T13:12:45;17.90;99.40
56234;DHT22;42141;53.240;6.580;2023-05-29T13:15:13;17.90;99.10
56234;DHT22;42141;53.240;6.580;2023-05-29T13:17:39;17.70;98.70
56234;DHT22;42141;53.240;6.580;2023-05-29T13:20:08;17.50;98.80
56234;DHT22;42141;53.240;6.580;2023-05-29T13:22:35;17.40;99.10
56234;DHT22;42141;53.240;6.580;2023-05-29T13:25:01;17.40;98.80
56234;DHT22;42141;53.240;6.580;2023-05-29T13:27:27;17.50;98.70
56234;DHT22;42141;53.240;6.580;2023-05-29T13:29:54;17.40;98.40
56234;DHT22;42141;53.240;6.580;2023-05-29T13:32:20;17.40;98.60
56234;DHT22;42141;53.240;6.580;2023-05-29T13:34:45;17.50;99.00
56234;DHT22;42141;53.240;6.580;2023-05-29T13:37:11;17.60;99.00
56234;DHT22;42141;53.240;6.580;2023-05-29T13:39:37;17.60;98.80
56234;DHT22;42141;53.240;6.580;2023-05-29T13:42:03;17.60;98.80
56234;DHT22;42141;53.240;6.580;2023-05-29T13:44:29;17.70;98.80
56234;DHT22;42141;53.240;6.580;2023-05-29T13:46:54;17.70;98.50
56234;DHT22;42141;53.240;6.580;2023-05-29T13:49:20;17.70;98.50
56234;DHT22;42141;53.240;6.580;2023-05-29T13:51:46;17.80;98.10
56234;DHT22;42141;53.240;6.580;2023-05-29T13:54:15;17.70;98.00
56234;DHT22;42141;53.240;6.580;2023-05-29T13:56:42;17.80;97.90
56234;DHT22;42141;53.240;6.580;2023-05-29T13:59:08;17.80;96.90
56234;DHT22;42141;53.240;6.580;2023-05-29T14:01:34;17.60;96.60
56234;DHT22;42141;53.240;6.580;2023-05-29T14:04:00;17.60;97.00
56234;DHT22;42141;53.240;6.580;2023-05-29T14:06:26;17.60;97.10
56234;DHT22;42141;53.240;6.580;2023-05-29T14:08:52;17.30;97.20
56234;DHT22;42141;53.240;6.580;2023-05-29T14:11:18;17.80;97.20
56234;DHT22;42141;53.240;6.580;2023-05-29T14:13:45;17.90;96.80
56234;DHT22;42141;53.240;6.580;2023-05-29T14:16:11;18.00;96.70
56234;DHT22;42141;53.240;6.580;2023-05-29T14:18:37;17.60;96.20
56234;DHT22;42141;53.240;6.580;2023-05-29T14:21:03;18.10;95.80
56234;DHT22;42141;53.240;6.580;2023-05-29T14:23:28;18.20;95.70
56234;DHT22;42141;53.240;6.580;2023-05-29T14:25:54;18.20;95.50
56234;DHT22;42141;53.240;6.580;2023-05-29T14:28:20;18.30;95.30
56234;DHT22;42141;53.240;6.580;2023-05-29T14:30:45;18.10;94.70
56234;DHT22;42141;53.240;6.580;2023-05-29T14:33:11;18.00;94.80
56234;DHT22;42141;53.240;6.580;2023-05-29T14:35:37;18.10;94.90
56234;DHT22;42141;53.240;6.580;2023-05-29T14:38:03;18.30;94.90
56234;DHT22;42141;53.240;6.580;2023-05-29T14:40:29;18.20;94.80
56234;DHT22;42141;53.240;6.580;2023-05-29T14:42:56;17.90;94.90
56234;DHT22;42141;53.240;6.580;2023-05-29T14:45:22;17.90;95.20
56234;DHT22;42141;53.240;6.580;2023-05-29T14:47:48;17.80;95.50
56234;DHT22;42141;53.240;6.580;2023-05-29T14:50:18;17.40;95.00
56234;DHT22;42141;53.240;6.580;2023-05-29T14:52:44;17.90;95.20
56234;DHT22;42141;53.240;6.580;2023-05-29T14:55:11;18.00;94.80
56234;DHT22;42141;53.240;6.580;2023-05-29T14:57:37;17.90;94.80
56234;DHT22;42141;53.240;6.580;2023-05-29T15:00:07;16.50;94.90
56234;DHT22;42141;53.240;6.580;2023-05-29T15:02:37;17.70;95.40
56234;DHT22;42141;53.240;6.580;2023-05-29T15:05:06;17.60;95.10
56234;DHT22;42141;53.240;6.580;2023-05-29T15:07:35;17.50;95.40
56234;DHT22;42141;53.240;6.580;2023-05-29T15:10:05;18.60;95.50
56234;DHT22;42141;53.240;6.580;2023-05-29T15:12:32;17.60;95.70
56234;DHT22;42141;53.240;6.580;2023-05-29T15:14:58;17.50;95.50
56234;DHT22;42141;53.240;6.580;2023-05-29T15:17:24;17.50;95.50
56234;DHT22;42141;53.240;6.580;2023-05-29T15:19:50;17.50;95.20
56234;DHT22;42141;53.240;6.580;2023-05-29T15:22:16;17.50;94.90
56234;DHT22;42141;53.240;6.580;2023-05-29T15:24:41;17.60;95.00
56234;DHT22;42141;53.240;6.580;2023-05-29T15:27:07;17.50;95.20
56234;DHT22;42141;53.240;6.580;2023-05-29T15:29:34;17.60;95.70
56234;DHT22;42141;53.240;6.580;2023-05-29T15:32:01;17.50;96.00
56234;DHT22;42141;53.240;6.580;2023-05-29T15:34:27;17.30;95.90
56234;DHT22;42141;53.240;6.580;2023-05-29T15:36:52;17.00;96.30
56234;DHT22;42141;53.240;6.580;2023-05-29T15:39:18;16.80;96.70
56234;DHT22;42141;53.240;6.580;2023-05-29T15:41:44;16.60;96.70
56234;DHT22;42141;53.240;6.580;2023-05-29T15:44:10;16.30;96.70
56234;DHT22;42141;53.240;6.580;2023-05-29T15:46:35;16.10;96.90
56234;DHT22;42141;53.240;6.580;2023-05-29T15:49:01;15.90;97.10